Terminal Aerodrome Forecast
Issued by NWS

Home | Current Version | Previous Version | Text Only | Print | Product List | Glossary On
Versions: 1 2 3 4 5 6 7 8 9 10 11 12 13 14 15 16 17
000
FTUS45 KREV 232300
TAFCXP
TAF
KCXP 232333Z 2400/2424 28008G17KT P6SM FEW080 SCT200
     FM240400 VRB04KT P6SM FEW120 SCT180
     FM241900 25016G32KT P6SM SCT100 BKN200=

USA.gov is the U.S. government's official web portal to all federal, state and local government web resources and services.